Sea-land Charger — WDB9948 — position and weather

sailwx.info

Track history (hours):
 
Tides and Currents Weather Stations Pressure Air Temp Water Temp Dewpoint Dewpoint Depression Visibility Wind Speed Wind Dir Waves Ship Positions

Sea-land Charger

Owner: MAERSK LINE, LIMITED, NORFOLK, VA. More information available from US FCC via Universal Licensing System.

Last reported at 2015-Jan-26 01:33 UTC. Time now 2015-Jan-26 02:27 UTC.
Position N 37°23' W 123°17'.

Type: Cargo ship. MMSI: 303279000.

Date/timePositionNaut miles runAvg speedWind from/ knotsBaromVisibWave heightAir tempDewpointWater temp
2015-Jan-26 01:33N 37°23' W 123°17'0 0.2
2015-Jan-26 00:33N 37°23' W 123°17'3 2.7
2015-Jan-25 23:33N 37°20' W 123°17'1110.6
2015-Jan-25 22:33N 37°10' W 123°17'1010.4
2015-Jan-25 21:33N 36°60' W 123°14'1010.4
2015-Jan-25 20:33N 36°50' W 123°08'9 8.8
2015-Jan-25 19:33N 36°42' W 123°04'0 0.3
2015-Jan-25 18:33N 36°42' W 123°03'0 0.2
2015-Jan-25 17:33N 36°42' W 123°03'0 0.2
2015-Jan-25 16:33N 36°43' W 123°03'0 0.2
2015-Jan-25 15:33N 36°43' W 123°03'0 0.3
2015-Jan-25 14:33N 36°43' W 123°03'0 0.3
2015-Jan-25 13:33N 36°43' W 123°03'0 0.4
2015-Jan-25 12:33N 36°44' W 123°03'0 0.3
2015-Jan-25 11:33N 36°44' W 123°03'0 0.2
2015-Jan-25 10:33N 36°44' W 123°03'0 0.3
2015-Jan-25 09:33N 36°45' W 123°03'1 0.5
2015-Jan-25 08:33N 36°45' W 123°03'1 0.7
2015-Jan-25 07:33N 36°46' W 123°03'1 0.9
2015-Jan-25 06:33N 36°47' W 123°03'1 1.2
2015-Jan-25 05:34N 36°48' W 123°04'1 1.2
2015-Jan-25 04:33N 36°49' W 123°05'1 1.2
2015-Jan-25 03:33N 36°50' W 123°05'1 1.0
2015-Jan-25 02:34N 36°51' W 123°06'1 0.8
2015-Jan-25 01:33N 36°51' W 123°07'1 0.6
2015-Jan-25 00:33N 36°52' W 123°07'1 0.7
2015-Jan-24 23:33N 36°52' W 123°07'1 0.7
2015-Jan-24 22:33N 36°53' W 123°08'1 0.7
2015-Jan-24 21:33N 36°54' W 123°08'1 0.6
2015-Jan-24 20:33N 36°54' W 123°08'1 0.5
2015-Jan-24 19:33N 36°55' W 123°08'3 2.6
2015-Jan-24 18:33N 36°52' W 123°07'1010.3
2015-Jan-24 17:33N 36°44' W 122°59'10 9.8
2015-Jan-24 16:33N 36°36' W 122°53'0 0.1
2015-Jan-24 15:33N 36°36' W 122°53'1 0.7
2015-Jan-24 14:34N 36°36' W 122°54'1 0.8
2015-Jan-24 13:33N 36°37' W 122°54'1 0.9
2015-Jan-24 12:33N 36°38' W 122°55'1 0.9
2015-Jan-24 11:33N 36°38' W 122°56'1 0.6
2015-Jan-24 10:33N 36°39' W 122°56'1 0.8
2015-Jan-24 09:33N 36°40' W 122°57'1 0.8
2015-Jan-24 08:33N 36°40' W 122°57'1 1.0
2015-Jan-24 07:33N 36°41' W 122°58'1 0.9
2015-Jan-24 06:33N 36°42' W 122°59'1 0.9
2015-Jan-24 05:33N 36°42' W 122°59'1 1.1
2015-Jan-24 04:33N 36°43' W 123°00'1 1.3
2015-Jan-24 03:33N 36°45' W 123°01'1 1.5
2015-Jan-24 02:33N 36°46' W 123°01'1 1.4
2015-Jan-24 01:33N 36°47' W 123°02'1 1.3
2015-Jan-24 00:33N 36°48' W 123°03'1 1.2
2015-Jan-23 23:33N 36°49' W 123°04'1 1.1
2015-Jan-23 22:33N 36°50' W 123°06'1 0.7
2015-Jan-23 21:33N 36°50' W 123°06'1 0.7
2015-Jan-23 20:33N 36°51' W 123°07'1 0.8
2015-Jan-23 19:33N 36°51' W 123°07'1 0.8
2015-Jan-23 18:33N 36°52' W 123°08'1 0.7
2015-Jan-23 17:33N 36°53' W 123°08'1 0.7
2015-Jan-23 16:33N 36°53' W 123°08'1 0.8
2015-Jan-23 15:33N 36°54' W 123°08'1 0.8
2015-Jan-23 14:33N 36°55' W 123°08'1 0.9
2015-Jan-23 13:33N 36°56' W 123°09'1 1.1
2015-Jan-23 12:33N 36°57' W 123°09'1 1.1
2015-Jan-23 11:33N 36°58' W 123°10'1 1.0
2015-Jan-23 10:33N 36°59' W 123°10'1 0.8
2015-Jan-23 09:33N 36°60' W 123°10'1 0.7
2015-Jan-23 08:33N 37°00' W 123°10'1 0.7
2015-Jan-23 07:33N 37°01' W 123°10'1 0.9
2015-Jan-23 06:33N 37°02' W 123°09'1 0.7
2015-Jan-23 05:29N 37°02' W 123°08'8 8.6
2015-Jan-23 04:33N 36°56' W 123°02'1111.0
2015-Jan-23 03:33N 36°48' W 122°52'1111.0
2015-Jan-23 02:33N 36°42' W 122°41'1211.7
2015-Jan-23 01:33N 36°34' W 122°30'1111.5
2015-Jan-23 00:33N 36°26' W 122°20'1110.9
2015-Jan-22 23:33N 36°17' W 122°11'1111.0
2015-Jan-22 22:33N 36°08' W 122°04'1211.6
2015-Jan-22 21:33N 35°58' W 121°57'1211.7
2015-Jan-22 20:33N 35°48' W 121°50'1211.5
2015-Jan-22 19:33N 35°38' W 121°42'1211.9
2015-Jan-22 18:33N 35°28' W 121°35'1211.7
2015-Jan-22 17:33N 35°18' W 121°28'1211.6
2015-Jan-22 16:33N 35°08' W 121°20'1211.8
2015-Jan-22 15:33N 34°58' W 121°13'1211.6
2015-Jan-22 14:33N 34°48' W 121°06'1211.6
2015-Jan-22 13:33N 34°38' W 120°58'1111.2
2015-Jan-22 12:32N 34°28' W 120°51'1411.0
2015-Jan-22 11:14N 34°22' W 120°35'7911.8
2015-Jan-22 04:33N 33°59' W 119°04'1111.5
2015-Jan-22 03:33N 33°53' W 118°52'1111.2
2015-Jan-22 02:33N 33°48' W 118°40'1110.8
2015-Jan-22 01:33N 33°42' W 118°29'1110.6
2015-Jan-22 00:33N 33°38' W 118°18'8 7.9
2015-Jan-21 23:33N 33°40' W 118°09'0 0.1
2015-Jan-21 22:31N 33°40' W 118°08'0 0.0
2015-Jan-21 21:31N 33°40' W 118°08'0 0.0
2015-Jan-21 20:31N 33°40' W 118°08'0 0.0
2015-Jan-21 19:31N 33°40' W 118°08'0 0.0
2015-Jan-21 07:22N 33°40' W 118°08'5 2.4
2015-Jan-21 05:26N 33°39' W 118°14'5 3.9
2015-Jan-21 04:11N 33°44' W 118°15'0 0.0
2015-Jan-21 02:30N 33°44' W 118°15'0 0.0
2015-Jan-20 23:06N 33°44' W 118°15'0 0.0
2015-Jan-20 22:18N 33°44' W 118°15'0 0.0
2015-Jan-20 20:33N 33°44' W 118°15'0 0.0
2015-Jan-20 19:33N 33°44' W 118°15'0 0.0
2015-Jan-20 18:30N 33°44' W 118°15'0 0.0
2015-Jan-20 17:27N 33°44' W 118°15'0 0.0
2015-Jan-20 16:30N 33°44' W 118°15'0 0.0
2015-Jan-20 15:30N 33°44' W 118°15'0 0.0
2015-Jan-20 14:33N 33°44' W 118°15'0 0.0
2015-Jan-20 13:33N 33°44' W 118°15'0 0.0
2015-Jan-20 12:33N 33°44' W 118°15'0 0.0
2015-Jan-20 11:33N 33°44' W 118°15'0 0.0
2015-Jan-20 10:33N 33°44' W 118°15'0 0.0
2015-Jan-20 09:33N 33°44' W 118°15'0 0.0
2015-Jan-20 08:33N 33°44' W 118°15'0 0.0
2015-Jan-20 07:33N 33°44' W 118°15'0 0.0
2015-Jan-20 06:33N 33°44' W 118°15'0 0.0
2015-Jan-20 05:30N 33°44' W 118°15'0 0.0
2015-Jan-20 04:31N 33°44' W 118°15'0 0.0
2015-Jan-20 03:27N 33°44' W 118°15'0 0.0
2015-Jan-20 02:06N 33°44' W 118°15'0 0.0
2015-Jan-20 01:31N 33°44' W 118°15'0 0.0
2015-Jan-20 00:33N 33°44' W 118°15'0 0.0
2015-Jan-19 23:33N 33°44' W 118°15'0 0.0
2015-Jan-19 22:33N 33°44' W 118°15'0 0.0
2015-Jan-19 21:33N 33°44' W 118°15'0 0.0
2015-Jan-19 20:33N 33°44' W 118°15'0 0.0
2015-Jan-19 19:33N 33°44' W 118°15'0 0.0
2015-Jan-19 18:33N 33°44' W 118°15'0 0.0
2015-Jan-19 17:33N 33°44' W 118°15'0 0.0
2015-Jan-19 16:33N 33°44' W 118°15'0 0.0
2015-Jan-19 15:33N 33°44' W 118°15'0 0.0
2015-Jan-19 14:33N 33°44' W 118°15'0 0.0
2015-Jan-19 13:33N 33°44' W 118°15'0 0.0
2015-Jan-19 12:33N 33°44' W 118°15'0 0.0
2015-Jan-19 11:33N 33°44' W 118°15'0 0.0
2015-Jan-19 10:33N 33°44' W 118°15'0 0.0
2015-Jan-19 09:33N 33°44' W 118°15'0 0.0
2015-Jan-19 08:33N 33°44' W 118°15'0 0.0
2015-Jan-19 07:33N 33°44' W 118°15'0 0.0
2015-Jan-19 06:33N 33°44' W 118°15'0 0.0
2015-Jan-19 05:33N 33°44' W 118°15'0 0.0
2015-Jan-19 04:33N 33°44' W 118°15'0 0.0
2015-Jan-19 03:33N 33°44' W 118°15'0 0.0
2015-Jan-19 02:33N 33°44' W 118°15'0 0.0
2015-Jan-19 01:33N 33°44' W 118°15'0 0.0
2015-Jan-19 00:33N 33°44' W 118°15'0 0.0
2015-Jan-18 23:33N 33°44' W 118°15'0 0.0
2015-Jan-18 22:33N 33°44' W 118°15'0 0.0
2015-Jan-18 21:33N 33°44' W 118°15'0 0.0
2015-Jan-18 20:33N 33°44' W 118°15'0 0.0
2015-Jan-18 19:33N 33°44' W 118°15'0 0.0
2015-Jan-18 18:33N 33°44' W 118°15'0 0.0
2015-Jan-18 17:33N 33°44' W 118°15'0 0.0
2015-Jan-18 16:33N 33°44' W 118°15'0 0.0
2015-Jan-18 15:33N 33°44' W 118°15'0 0.0
2015-Jan-18 13:30N 33°44' W 118°15'0 0.0
2015-Jan-18 11:33N 33°44' W 118°15'0 0.0
2015-Jan-18 10:33N 33°44' W 118°15'0 0.0
2015-Jan-18 09:33N 33°44' W 118°15'0 0.0
2015-Jan-18 08:30N 33°44' W 118°15'0 0.0
2015-Jan-18 07:33N 33°44' W 118°15'0 0.0
2015-Jan-18 06:33N 33°44' W 118°15'0 0.0
2015-Jan-18 05:33N 33°44' W 118°15'0 0.0
2015-Jan-18 04:33N 33°44' W 118°15'0 0.0
2015-Jan-18 03:33N 33°44' W 118°15'0 0.0
2015-Jan-18 02:33N 33°44' W 118°15'0 0.0
2015-Jan-18 01:33N 33°44' W 118°15'0 0.0
2015-Jan-18 00:33N 33°44' W 118°15'0 0.0
2015-Jan-17 23:33N 33°44' W 118°15'0 0.0
2015-Jan-17 22:33N 33°44' W 118°15'0 0.0
2015-Jan-17 21:33N 33°44' W 118°15'0 0.0
2015-Jan-17 20:27N 33°44' W 118°15'0 0.0
2015-Jan-17 19:33N 33°44' W 118°15'0 0.0
2015-Jan-17 18:33N 33°44' W 118°15'0 0.0
2015-Jan-17 17:33N 33°44' W 118°15'0 0.0
2015-Jan-17 16:33N 33°44' W 118°15'0 0.0
2015-Jan-17 15:33N 33°44' W 118°15'0 0.0
2015-Jan-17 14:33N 33°44' W 118°15'0 0.0
2015-Jan-17 13:33N 33°44' W 118°15'0 0.0
2015-Jan-17 12:33N 33°44' W 118°15'0 0.0
2015-Jan-17 11:33N 33°44' W 118°15'0 0.0
2015-Jan-17 10:30N 33°44' W 118°15'0 0.0
2015-Jan-17 09:33N 33°44' W 118°15'0 0.0
2015-Jan-17 08:33N 33°44' W 118°15'0 0.0
2015-Jan-17 07:33N 33°44' W 118°15'0 0.0
2015-Jan-17 06:33N 33°44' W 118°15'0 0.0
2015-Jan-17 05:33N 33°44' W 118°15'0 0.0
2015-Jan-17 04:33N 33°44' W 118°15'0 0.0
2015-Jan-17 03:33N 33°44' W 118°15'0 0.0
2015-Jan-17 02:33N 33°44' W 118°15'0 0.0
2015-Jan-17 01:33N 33°44' W 118°15'0 0.0
2015-Jan-17 00:33N 33°44' W 118°15'0 0.0
2015-Jan-16 23:33N 33°44' W 118°15'0 0.0
2015-Jan-16 22:33N 33°44' W 118°15'0 0.0
2015-Jan-16 21:33N 33°44' W 118°15'0 0.0
2015-Jan-16 20:33N 33°44' W 118°15'0 0.0
2015-Jan-16 19:33N 33°44' W 118°15'0 0.0
2015-Jan-16 18:33N 33°44' W 118°15'0 0.0
2015-Jan-16 17:33N 33°44' W 118°15'0 0.0
2015-Jan-16 16:33N 33°44' W 118°15'0 0.0
2015-Jan-16 15:33N 33°44' W 118°15'0 0.0
2015-Jan-16 14:33N 33°44' W 118°15'0 0.0
2015-Jan-16 13:33N 33°44' W 118°15'0 0.0
2015-Jan-16 12:33N 33°44' W 118°15'0 0.0
2015-Jan-16 11:33N 33°44' W 118°15'0 0.0
2015-Jan-16 10:33N 33°44' W 118°15'0 0.0
2015-Jan-16 09:30N 33°44' W 118°15'0 0.0
2015-Jan-16 08:33N 33°44' W 118°15'0 0.0
2015-Jan-16 07:33N 33°44' W 118°15'0 0.0
2015-Jan-16 06:33N 33°44' W 118°15'0 0.0
2015-Jan-16 05:33N 33°44' W 118°15'0 0.0
2015-Jan-16 04:33N 33°44' W 118°15'0 0.0
2015-Jan-16 03:33N 33°44' W 118°15'0 0.0
2015-Jan-16 02:33N 33°44' W 118°15'  
Track history (hours):
 
Tides and Currents Weather Stations Pressure Air Temp Water Temp Dewpoint Dewpoint Depression Visibility Wind Speed Wind Dir Waves Ship Positions

Sea-land Charger

Owner: MAERSK LINE, LIMITED, NORFOLK, VA. More information available from US FCC via Universal Licensing System.

Last reported at 2015-Jan-26 01:33 UTC. Time now 2015-Jan-26 02:27 UTC.
Position N 37°23' W 123°17'.

Type: Cargo ship. MMSI: 303279000.

Date/timePositionNaut miles runAvg speedWind from/ knotsBaromVisibWave heightAir tempDewpointWater temp
2015-Jan-26 01:33N 37°23' W 123°17'0 0.2
2015-Jan-26 00:33N 37°23' W 123°17'3 2.7
2015-Jan-25 23:33N 37°20' W 123°17'1110.6
2015-Jan-25 22:33N 37°10' W 123°17'1010.4
2015-Jan-25 21:33N 36°60' W 123°14'1010.4
2015-Jan-25 20:33N 36°50' W 123°08'9 8.8
2015-Jan-25 19:33N 36°42' W 123°04'0 0.3
2015-Jan-25 18:33N 36°42' W 123°03'0 0.2
2015-Jan-25 17:33N 36°42' W 123°03'0 0.2
2015-Jan-25 16:33N 36°43' W 123°03'0 0.2
2015-Jan-25 15:33N 36°43' W 123°03'0 0.3
2015-Jan-25 14:33N 36°43' W 123°03'0 0.3
2015-Jan-25 13:33N 36°43' W 123°03'0 0.4
2015-Jan-25 12:33N 36°44' W 123°03'0 0.3
2015-Jan-25 11:33N 36°44' W 123°03'0 0.2
2015-Jan-25 10:33N 36°44' W 123°03'0 0.3
2015-Jan-25 09:33N 36°45' W 123°03'1 0.5
2015-Jan-25 08:33N 36°45' W 123°03'1 0.7
2015-Jan-25 07:33N 36°46' W 123°03'1 0.9
2015-Jan-25 06:33N 36°47' W 123°03'1 1.2
2015-Jan-25 05:34N 36°48' W 123°04'1 1.2
2015-Jan-25 04:33N 36°49' W 123°05'1 1.2
2015-Jan-25 03:33N 36°50' W 123°05'1 1.0
2015-Jan-25 02:34N 36°51' W 123°06'1 0.8
2015-Jan-25 01:33N 36°51' W 123°07'1 0.6
2015-Jan-25 00:33N 36°52' W 123°07'1 0.7
2015-Jan-24 23:33N 36°52' W 123°07'1 0.7
2015-Jan-24 22:33N 36°53' W 123°08'1 0.7
2015-Jan-24 21:33N 36°54' W 123°08'1 0.6
2015-Jan-24 20:33N 36°54' W 123°08'1 0.5
2015-Jan-24 19:33N 36°55' W 123°08'3 2.6
2015-Jan-24 18:33N 36°52' W 123°07'1010.3
2015-Jan-24 17:33N 36°44' W 122°59'10 9.8
2015-Jan-24 16:33N 36°36' W 122°53'0 0.1
2015-Jan-24 15:33N 36°36' W 122°53'1 0.7
2015-Jan-24 14:34N 36°36' W 122°54'1 0.8
2015-Jan-24 13:33N 36°37' W 122°54'1 0.9
2015-Jan-24 12:33N 36°38' W 122°55'1 0.9
2015-Jan-24 11:33N 36°38' W 122°56'1 0.6
2015-Jan-24 10:33N 36°39' W 122°56'1 0.8
2015-Jan-24 09:33N 36°40' W 122°57'1 0.8
2015-Jan-24 08:33N 36°40' W 122°57'1 1.0
2015-Jan-24 07:33N 36°41' W 122°58'1 0.9
2015-Jan-24 06:33N 36°42' W 122°59'1 0.9
2015-Jan-24 05:33N 36°42' W 122°59'1 1.1
2015-Jan-24 04:33N 36°43' W 123°00'1 1.3
2015-Jan-24 03:33N 36°45' W 123°01'1 1.5
2015-Jan-24 02:33N 36°46' W 123°01'1 1.4
2015-Jan-24 01:33N 36°47' W 123°02'1 1.3
2015-Jan-24 00:33N 36°48' W 123°03'1 1.2
2015-Jan-23 23:33N 36°49' W 123°04'1 1.1
2015-Jan-23 22:33N 36°50' W 123°06'1 0.7
2015-Jan-23 21:33N 36°50' W 123°06'1 0.7
2015-Jan-23 20:33N 36°51' W 123°07'1 0.8
2015-Jan-23 19:33N 36°51' W 123°07'1 0.8
2015-Jan-23 18:33N 36°52' W 123°08'1 0.7
2015-Jan-23 17:33N 36°53' W 123°08'1 0.7
2015-Jan-23 16:33N 36°53' W 123°08'1 0.8
2015-Jan-23 15:33N 36°54' W 123°08'1 0.8
2015-Jan-23 14:33N 36°55' W 123°08'1 0.9
2015-Jan-23 13:33N 36°56' W 123°09'1 1.1
2015-Jan-23 12:33N 36°57' W 123°09'1 1.1
2015-Jan-23 11:33N 36°58' W 123°10'1 1.0
2015-Jan-23 10:33N 36°59' W 123°10'1 0.8
2015-Jan-23 09:33N 36°60' W 123°10'1 0.7
2015-Jan-23 08:33N 37°00' W 123°10'1 0.7
2015-Jan-23 07:33N 37°01' W 123°10'1 0.9
2015-Jan-23 06:33N 37°02' W 123°09'1 0.7
2015-Jan-23 05:29N 37°02' W 123°08'8 8.6
2015-Jan-23 04:33N 36°56' W 123°02'1111.0
2015-Jan-23 03:33N 36°48' W 122°52'1111.0
2015-Jan-23 02:33N 36°42' W 122°41'1211.7
2015-Jan-23 01:33N 36°34' W 122°30'1111.5
2015-Jan-23 00:33N 36°26' W 122°20'1110.9
2015-Jan-22 23:33N 36°17' W 122°11'1111.0
2015-Jan-22 22:33N 36°08' W 122°04'1211.6
2015-Jan-22 21:33N 35°58' W 121°57'1211.7
2015-Jan-22 20:33N 35°48' W 121°50'1211.5
2015-Jan-22 19:33N 35°38' W 121°42'1211.9
2015-Jan-22 18:33N 35°28' W 121°35'1211.7
2015-Jan-22 17:33N 35°18' W 121°28'1211.6
2015-Jan-22 16:33N 35°08' W 121°20'1211.8
2015-Jan-22 15:33N 34°58' W 121°13'1211.6
2015-Jan-22 14:33N 34°48' W 121°06'1211.6
2015-Jan-22 13:33N 34°38' W 120°58'1111.2
2015-Jan-22 12:32N 34°28' W 120°51'1411.0
2015-Jan-22 11:14N 34°22' W 120°35'7911.8
2015-Jan-22 04:33N 33°59' W 119°04'1111.5
2015-Jan-22 03:33N 33°53' W 118°52'1111.2
2015-Jan-22 02:33N 33°48' W 118°40'1110.8
2015-Jan-22 01:33N 33°42' W 118°29'1110.6
2015-Jan-22 00:33N 33°38' W 118°18'8 7.9
2015-Jan-21 23:33N 33°40' W 118°09'0 0.1
2015-Jan-21 22:31N 33°40' W 118°08'0 0.0
2015-Jan-21 21:31N 33°40' W 118°08'0 0.0
2015-Jan-21 20:31N 33°40' W 118°08'0 0.0
2015-Jan-21 19:31N 33°40' W 118°08'0 0.0
2015-Jan-21 07:22N 33°40' W 118°08'5 2.4
2015-Jan-21 05:26N 33°39' W 118°14'5 3.9
2015-Jan-21 04:11N 33°44' W 118°15'0 0.0
2015-Jan-21 02:30N 33°44' W 118°15'0 0.0
2015-Jan-20 23:06N 33°44' W 118°15'0 0.0
2015-Jan-20 22:18N 33°44' W 118°15'0 0.0
2015-Jan-20 20:33N 33°44' W 118°15'0 0.0
2015-Jan-20 19:33N 33°44' W 118°15'0 0.0
2015-Jan-20 18:30N 33°44' W 118°15'0 0.0
2015-Jan-20 17:27N 33°44' W 118°15'0 0.0
2015-Jan-20 16:30N 33°44' W 118°15'0 0.0
2015-Jan-20 15:30N 33°44' W 118°15'0 0.0
2015-Jan-20 14:33N 33°44' W 118°15'0 0.0
2015-Jan-20 13:33N 33°44' W 118°15'0 0.0
2015-Jan-20 12:33N 33°44' W 118°15'0 0.0
2015-Jan-20 11:33N 33°44' W 118°15'0 0.0
2015-Jan-20 10:33N 33°44' W 118°15'0 0.0
2015-Jan-20 09:33N 33°44' W 118°15'0 0.0
2015-Jan-20 08:33N 33°44' W 118°15'0 0.0
2015-Jan-20 07:33N 33°44' W 118°15'0 0.0
2015-Jan-20 06:33N 33°44' W 118°15'0 0.0
2015-Jan-20 05:30N 33°44' W 118°15'0 0.0
2015-Jan-20 04:31N 33°44' W 118°15'0 0.0
2015-Jan-20 03:27N 33°44' W 118°15'0 0.0
2015-Jan-20 02:06N 33°44' W 118°15'0 0.0
2015-Jan-20 01:31N 33°44' W 118°15'0 0.0
2015-Jan-20 00:33N 33°44' W 118°15'0 0.0
2015-Jan-19 23:33N 33°44' W 118°15'0 0.0
2015-Jan-19 22:33N 33°44' W 118°15'0 0.0
2015-Jan-19 21:33N 33°44' W 118°15'0 0.0
2015-Jan-19 20:33N 33°44' W 118°15'0 0.0
2015-Jan-19 19:33N 33°44' W 118°15'0 0.0
2015-Jan-19 18:33N 33°44' W 118°15'0 0.0
2015-Jan-19 17:33N 33°44' W 118°15'0 0.0
2015-Jan-19 16:33N 33°44' W 118°15'0 0.0
2015-Jan-19 15:33N 33°44' W 118°15'0 0.0
2015-Jan-19 14:33N 33°44' W 118°15'0 0.0
2015-Jan-19 13:33N 33°44' W 118°15'0 0.0
2015-Jan-19 12:33N 33°44' W 118°15'0 0.0
2015-Jan-19 11:33N 33°44' W 118°15'0 0.0
2015-Jan-19 10:33N 33°44' W 118°15'0 0.0
2015-Jan-19 09:33N 33°44' W 118°15'0 0.0
2015-Jan-19 08:33N 33°44' W 118°15'0 0.0
2015-Jan-19 07:33N 33°44' W 118°15'0 0.0
2015-Jan-19 06:33N 33°44' W 118°15'0 0.0
2015-Jan-19 05:33N 33°44' W 118°15'0 0.0
2015-Jan-19 04:33N 33°44' W 118°15'0 0.0
2015-Jan-19 03:33N 33°44' W 118°15'0 0.0
2015-Jan-19 02:33N 33°44' W 118°15'0 0.0
2015-Jan-19 01:33N 33°44' W 118°15'0 0.0
2015-Jan-19 00:33N 33°44' W 118°15'0 0.0
2015-Jan-18 23:33N 33°44' W 118°15'0 0.0
2015-Jan-18 22:33N 33°44' W 118°15'0 0.0
2015-Jan-18 21:33N 33°44' W 118°15'0 0.0
2015-Jan-18 20:33N 33°44' W 118°15'0 0.0
2015-Jan-18 19:33N 33°44' W 118°15'0 0.0
2015-Jan-18 18:33N 33°44' W 118°15'0 0.0
2015-Jan-18 17:33N 33°44' W 118°15'0 0.0
2015-Jan-18 16:33N 33°44' W 118°15'0 0.0
2015-Jan-18 15:33N 33°44' W 118°15'0 0.0
2015-Jan-18 13:30N 33°44' W 118°15'0 0.0
2015-Jan-18 11:33N 33°44' W 118°15'0 0.0
2015-Jan-18 10:33N 33°44' W 118°15'0 0.0
2015-Jan-18 09:33N 33°44' W 118°15'0 0.0
2015-Jan-18 08:30N 33°44' W 118°15'0 0.0
2015-Jan-18 07:33N 33°44' W 118°15'0 0.0
2015-Jan-18 06:33N 33°44' W 118°15'0 0.0
2015-Jan-18 05:33N 33°44' W 118°15'0 0.0
2015-Jan-18 04:33N 33°44' W 118°15'0 0.0
2015-Jan-18 03:33N 33°44' W 118°15'0 0.0
2015-Jan-18 02:33N 33°44' W 118°15'0 0.0
2015-Jan-18 01:33N 33°44' W 118°15'0 0.0
2015-Jan-18 00:33N 33°44' W 118°15'0 0.0
2015-Jan-17 23:33N 33°44' W 118°15'0 0.0
2015-Jan-17 22:33N 33°44' W 118°15'0 0.0
2015-Jan-17 21:33N 33°44' W 118°15'0 0.0
2015-Jan-17 20:27N 33°44' W 118°15'0 0.0
2015-Jan-17 19:33N 33°44' W 118°15'0 0.0
2015-Jan-17 18:33N 33°44' W 118°15'0 0.0
2015-Jan-17 17:33N 33°44' W 118°15'0 0.0
2015-Jan-17 16:33N 33°44' W 118°15'0 0.0
2015-Jan-17 15:33N 33°44' W 118°15'0 0.0
2015-Jan-17 14:33N 33°44' W 118°15'0 0.0
2015-Jan-17 13:33N 33°44' W 118°15'0 0.0
2015-Jan-17 12:33N 33°44' W 118°15'0 0.0
2015-Jan-17 11:33N 33°44' W 118°15'0 0.0
2015-Jan-17 10:30N 33°44' W 118°15'0 0.0
2015-Jan-17 09:33N 33°44' W 118°15'0 0.0
2015-Jan-17 08:33N 33°44' W 118°15'0 0.0
2015-Jan-17 07:33N 33°44' W 118°15'0 0.0
2015-Jan-17 06:33N 33°44' W 118°15'0 0.0
2015-Jan-17 05:33N 33°44' W 118°15'0 0.0
2015-Jan-17 04:33N 33°44' W 118°15'0 0.0
2015-Jan-17 03:33N 33°44' W 118°15'0 0.0
2015-Jan-17 02:33N 33°44' W 118°15'0 0.0
2015-Jan-17 01:33N 33°44' W 118°15'0 0.0
2015-Jan-17 00:33N 33°44' W 118°15'0 0.0
2015-Jan-16 23:33N 33°44' W 118°15'0 0.0
2015-Jan-16 22:33N 33°44' W 118°15'0 0.0
2015-Jan-16 21:33N 33°44' W 118°15'0 0.0
2015-Jan-16 20:33N 33°44' W 118°15'0 0.0
2015-Jan-16 19:33N 33°44' W 118°15'0 0.0
2015-Jan-16 18:33N 33°44' W 118°15'0 0.0
2015-Jan-16 17:33N 33°44' W 118°15'0 0.0
2015-Jan-16 16:33N 33°44' W 118°15'0 0.0
2015-Jan-16 15:33N 33°44' W 118°15'0 0.0
2015-Jan-16 14:33N 33°44' W 118°15'0 0.0
2015-Jan-16 13:33N 33°44' W 118°15'0 0.0
2015-Jan-16 12:33N 33°44' W 118°15'0 0.0
2015-Jan-16 11:33N 33°44' W 118°15'0 0.0
2015-Jan-16 10:33N 33°44' W 118°15'0 0.0
2015-Jan-16 09:30N 33°44' W 118°15'0 0.0
2015-Jan-16 08:33N 33°44' W 118°15'0 0.0
2015-Jan-16 07:33N 33°44' W 118°15'0 0.0
2015-Jan-16 06:33N 33°44' W 118°15'0 0.0
2015-Jan-16 05:33N 33°44' W 118°15'0 0.0
2015-Jan-16 04:33N 33°44' W 118°15'0 0.0
2015-Jan-16 03:33N 33°44' W 118°15'0 0.0
2015-Jan-16 02:33N 33°44' W 118°15'  

Dump ship's entire track history